sensor_id;sensor_type;location;lat;lon;timestamp;P1;durP1;ratioP1;P2;durP2;ratioP2
9222;SDS011;7557;51.698;3.942;2023-08-21T00:00:56;427.83;;;412.23;;
9222;SDS011;7557;51.698;3.942;2023-08-21T00:03:23;433.45;;;417.05;;
9222;SDS011;7557;51.698;3.942;2023-08-21T00:05:50;441.90;;;425.77;;
9222;SDS011;7557;51.698;3.942;2023-08-21T00:08:19;407.35;;;392.48;;
9222;SDS011;7557;51.698;3.942;2023-08-21T00:10:47;432.83;;;416.30;;
9222;SDS011;7557;51.698;3.942;2023-08-21T00:13:14;461.77;;;444.15;;
9222;SDS011;7557;51.698;3.942;2023-08-21T00:15:41;475.17;;;456.85;;
9222;SDS011;7557;51.698;3.942;2023-08-21T00:18:08;468.27;;;450.55;;
9222;SDS011;7557;51.698;3.942;2023-08-21T00:20:35;472.67;;;454.38;;
9222;SDS011;7557;51.698;3.942;2023-08-21T00:23:03;465.88;;;448.10;;
9222;SDS011;7557;51.698;3.942;2023-08-21T00:25:32;503.38;;;483.55;;
9222;SDS011;7557;51.698;3.942;2023-08-21T00:28:00;570.58;;;546.63;;
9222;SDS011;7557;51.698;3.942;2023-08-21T00:30:27;547.78;;;525.10;;
9222;SDS011;7557;51.698;3.942;2023-08-21T00:32:54;566.03;;;542.58;;
9222;SDS011;7557;51.698;3.942;2023-08-21T00:35:21;540.38;;;518.47;;
9222;SDS011;7557;51.698;3.942;2023-08-21T00:37:49;568.67;;;545.42;;
9222;SDS011;7557;51.698;3.942;2023-08-21T00:40:16;569.22;;;545.58;;
9222;SDS011;7557;51.698;3.942;2023-08-21T00:42:46;587.20;;;563.03;;
9222;SDS011;7557;51.698;3.942;2023-08-21T00:48:35;559.72;;;536.22;;
9222;SDS011;7557;51.698;3.942;2023-08-21T00:51:03;544.20;;;521.72;;
9222;SDS011;7557;51.698;3.942;2023-08-21T00:53:31;542.22;;;519.85;;
9222;SDS011;7557;51.698;3.942;2023-08-21T00:55:59;454.58;;;437.10;;
9222;SDS011;7557;51.698;3.942;2023-08-21T00:58:29;489.70;;;469.75;;
9222;SDS011;7557;51.698;3.942;2023-08-21T01:00:56;540.97;;;518.60;;
9222;SDS011;7557;51.698;3.942;2023-08-21T01:03:24;452.38;;;433.95;;
9222;SDS011;7557;51.698;3.942;2023-08-21T01:05:51;497.17;;;477.25;;
9222;SDS011;7557;51.698;3.942;2023-08-21T01:08:21;486.67;;;467.35;;
9222;SDS011;7557;51.698;3.942;2023-08-21T01:10:56;485.15;;;465.52;;
9222;SDS011;7557;51.698;3.942;2023-08-21T01:13:34;495.45;;;475.48;;
9222;SDS011;7557;51.698;3.942;2023-08-21T01:16:10;565.28;;;541.28;;
9222;SDS011;7557;51.698;3.942;2023-08-21T01:18:40;539.88;;;518.10;;
9222;SDS011;7557;51.698;3.942;2023-08-21T01:21:08;582.30;;;557.75;;
9222;SDS011;7557;51.698;3.942;2023-08-21T01:23:37;591.72;;;565.97;;
9222;SDS011;7557;51.698;3.942;2023-08-21T01:26:05;589.60;;;563.70;;
9222;SDS011;7557;51.698;3.942;2023-08-21T01:28:32;606.40;;;580.03;;
9222;SDS011;7557;51.698;3.942;2023-08-21T01:31:03;626.75;;;599.03;;
9222;SDS011;7557;51.698;3.942;2023-08-21T01:33:35;586.75;;;561.45;;
9222;SDS011;7557;51.698;3.942;2023-08-21T01:36:07;616.65;;;589.13;;
9222;SDS011;7557;51.698;3.942;2023-08-21T01:38:34;570.17;;;546.00;;
9222;SDS011;7557;51.698;3.942;2023-08-21T01:41:04;580.92;;;555.50;;
9222;SDS011;7557;51.698;3.942;2023-08-21T01:43:31;538.80;;;515.92;;
9222;SDS011;7557;51.698;3.942;2023-08-21T01:45:58;617.45;;;589.63;;
9222;SDS011;7557;51.698;3.942;2023-08-21T01:48:28;595.97;;;569.42;;
9222;SDS011;7557;51.698;3.942;2023-08-21T01:50:56;615.95;;;589.53;;
9222;SDS011;7557;51.698;3.942;2023-08-21T01:53:23;621.67;;;594.38;;
9222;SDS011;7557;51.698;3.942;2023-08-21T01:55:50;620.53;;;593.53;;
9222;SDS011;7557;51.698;3.942;2023-08-21T01:58:19;580.13;;;555.95;;
9222;SDS011;7557;51.698;3.942;2023-08-21T02:00:46;573.95;;;549.85;;
9222;SDS011;7557;51.698;3.942;2023-08-21T02:03:13;611.22;;;584.42;;
9222;SDS011;7557;51.698;3.942;2023-08-21T02:05:41;616.70;;;589.38;;
9222;SDS011;7557;51.698;3.942;2023-08-21T02:08:12;585.10;;;560.38;;
9222;SDS011;7557;51.698;3.942;2023-08-21T02:10:46;562.00;;;538.35;;
9222;SDS011;7557;51.698;3.942;2023-08-21T02:13:19;598.25;;;572.53;;
9222;SDS011;7557;51.698;3.942;2023-08-21T02:15:46;558.00;;;535.22;;
9222;SDS011;7557;51.698;3.942;2023-08-21T02:18:13;549.85;;;527.95;;
9222;SDS011;7557;51.698;3.942;2023-08-21T02:20:40;540.80;;;519.47;;
9222;SDS011;7557;51.698;3.942;2023-08-21T02:23:07;538.17;;;516.85;;
9222;SDS011;7557;51.698;3.942;2023-08-21T02:25:34;522.55;;;501.25;;
9222;SDS011;7557;51.698;3.942;2023-08-21T02:28:02;527.47;;;506.58;;
9222;SDS011;7557;51.698;3.942;2023-08-21T02:30:31;528.70;;;507.27;;
9222;SDS011;7557;51.698;3.942;2023-08-21T02:32:58;526.85;;;505.83;;
9222;SDS011;7557;51.698;3.942;2023-08-21T02:35:26;508.33;;;488.27;;
9222;SDS011;7557;51.698;3.942;2023-08-21T02:37:53;512.38;;;491.80;;
9222;SDS011;7557;51.698;3.942;2023-08-21T02:40:20;499.90;;;480.38;;
9222;SDS011;7557;51.698;3.942;2023-08-21T02:42:47;468.52;;;450.75;;
9222;SDS011;7557;51.698;3.942;2023-08-21T02:45:14;483.48;;;464.63;;
9222;SDS011;7557;51.698;3.942;2023-08-21T02:47:43;507.95;;;487.92;;
9222;SDS011;7557;51.698;3.942;2023-08-21T02:50:10;515.28;;;494.52;;
9222;SDS011;7557;51.698;3.942;2023-08-21T02:52:38;507.02;;;487.23;;
9222;SDS011;7557;51.698;3.942;2023-08-21T02:55:05;484.30;;;465.00;;
9222;SDS011;7557;51.698;3.942;2023-08-21T02:57:33;504.40;;;484.48;;
9222;SDS011;7557;51.698;3.942;2023-08-21T03:00:00;504.00;;;484.35;;
9222;SDS011;7557;51.698;3.942;2023-08-21T03:02:28;531.28;;;509.55;;
9222;SDS011;7557;51.698;3.942;2023-08-21T03:04:56;474.83;;;456.23;;
9222;SDS011;7557;51.698;3.942;2023-08-21T03:07:23;488.33;;;469.88;;
9222;SDS011;7557;51.698;3.942;2023-08-21T03:09:51;472.90;;;455.08;;
9222;SDS011;7557;51.698;3.942;2023-08-21T03:12:18;501.50;;;482.17;;
9222;SDS011;7557;51.698;3.942;2023-08-21T03:14:45;495.40;;;476.08;;
9222;SDS011;7557;51.698;3.942;2023-08-21T03:17:13;584.70;;;560.00;;
9222;SDS011;7557;51.698;3.942;2023-08-21T03:19:40;603.25;;;576.78;;
9222;SDS011;7557;51.698;3.942;2023-08-21T03:22:08;635.67;;;607.35;;
9222;SDS011;7557;51.698;3.942;2023-08-21T03:24:36;674.35;;;642.63;;
9222;SDS011;7557;51.698;3.942;2023-08-21T03:27:03;613.95;;;586.17;;
9222;SDS011;7557;51.698;3.942;2023-08-21T03:29:30;592.60;;;565.88;;
9222;SDS011;7557;51.698;3.942;2023-08-21T03:31:58;630.75;;;602.33;;
9222;SDS011;7557;51.698;3.942;2023-08-21T03:34:25;653.58;;;623.58;;
9222;SDS011;7557;51.698;3.942;2023-08-21T03:36:53;581.95;;;556.33;;
9222;SDS011;7557;51.698;3.942;2023-08-21T03:39:22;620.95;;;593.05;;
9222;SDS011;7557;51.698;3.942;2023-08-21T03:41:49;646.45;;;617.35;;
9222;SDS011;7557;51.698;3.942;2023-08-21T03:44:17;654.72;;;624.55;;
9222;SDS011;7557;51.698;3.942;2023-08-21T03:46:44;608.15;;;581.65;;
9222;SDS011;7557;51.698;3.942;2023-08-21T03:49:11;523.47;;;502.10;;
9222;SDS011;7557;51.698;3.942;2023-08-21T03:51:39;518.17;;;497.50;;
9222;SDS011;7557;51.698;3.942;2023-08-21T03:54:06;513.90;;;493.85;;
9222;SDS011;7557;51.698;3.942;2023-08-21T03:56:35;514.30;;;494.40;;
9222;SDS011;7557;51.698;3.942;2023-08-21T03:59:02;500.52;;;480.83;;
9222;SDS011;7557;51.698;3.942;2023-08-21T04:01:30;535.97;;;514.17;;
9222;SDS011;7557;51.698;3.942;2023-08-21T04:03:57;577.30;;;552.83;;
9222;SDS011;7557;51.698;3.942;2023-08-21T04:06:24;524.88;;;503.55;;
9222;SDS011;7557;51.698;3.942;2023-08-21T04:08:52;569.75;;;545.65;;
9222;SDS011;7557;51.698;3.942;2023-08-21T04:11:20;612.55;;;585.60;;
9222;SDS011;7557;51.698;3.942;2023-08-21T04:13:49;531.03;;;509.55;;
9222;SDS011;7557;51.698;3.942;2023-08-21T04:16:16;512.85;;;493.02;;
9222;SDS011;7557;51.698;3.942;2023-08-21T04:18:46;486.77;;;468.05;;
9222;SDS011;7557;51.698;3.942;2023-08-21T04:21:14;495.88;;;476.52;;
9222;SDS011;7557;51.698;3.942;2023-08-21T04:23:43;509.67;;;489.58;;
9222;SDS011;7557;51.698;3.942;2023-08-21T04:26:11;508.00;;;487.50;;
9222;SDS011;7557;51.698;3.942;2023-08-21T04:28:39;548.13;;;525.42;;
9222;SDS011;7557;51.698;3.942;2023-08-21T04:31:09;578.55;;;553.78;;
9222;SDS011;7557;51.698;3.942;2023-08-21T04:33:36;501.70;;;482.08;;
9222;SDS011;7557;51.698;3.942;2023-08-21T04:36:04;543.92;;;521.47;;
9222;SDS011;7557;51.698;3.942;2023-08-21T04:38:31;514.58;;;494.27;;
9222;SDS011;7557;51.698;3.942;2023-08-21T04:41:05;469.75;;;451.92;;
9222;SDS011;7557;51.698;3.942;2023-08-21T04:43:33;542.35;;;519.67;;
9222;SDS011;7557;51.698;3.942;2023-08-21T04:46:01;627.70;;;599.65;;
9222;SDS011;7557;51.698;3.942;2023-08-21T04:48:30;567.58;;;543.42;;
9222;SDS011;7557;51.698;3.942;2023-08-21T04:50:57;564.95;;;541.50;;
9222;SDS011;7557;51.698;3.942;2023-08-21T04:53:25;507.15;;;487.25;;
9222;SDS011;7557;51.698;3.942;2023-08-21T04:55:52;485.65;;;467.02;;
9222;SDS011;7557;51.698;3.942;2023-08-21T04:58:20;481.20;;;463.02;;
9222;SDS011;7557;51.698;3.942;2023-08-21T05:00:47;482.17;;;463.63;;
9222;SDS011;7557;51.698;3.942;2023-08-21T05:03:15;511.20;;;490.80;;
9222;SDS011;7557;51.698;3.942;2023-08-21T05:05:53;483.95;;;465.67;;
9222;SDS011;7557;51.698;3.942;2023-08-21T05:08:20;513.47;;;492.83;;
9222;SDS011;7557;51.698;3.942;2023-08-21T05:10:48;574.92;;;550.65;;
9222;SDS011;7557;51.698;3.942;2023-08-21T05:13:20;580.63;;;555.70;;
9222;SDS011;7557;51.698;3.942;2023-08-21T05:15:50;599.13;;;572.90;;
9222;SDS011;7557;51.698;3.942;2023-08-21T05:18:18;589.88;;;564.65;;
9222;SDS011;7557;51.698;3.942;2023-08-21T05:20:46;612.65;;;585.97;;
9222;SDS011;7557;51.698;3.942;2023-08-21T05:23:15;590.45;;;564.42;;
9222;SDS011;7557;51.698;3.942;2023-08-21T05:25:43;589.55;;;564.45;;
9222;SDS011;7557;51.698;3.942;2023-08-21T05:28:11;517.70;;;496.23;;
9222;SDS011;7557;51.698;3.942;2023-08-21T05:30:39;540.50;;;518.15;;
9222;SDS011;7557;51.698;3.942;2023-08-21T05:33:06;500.70;;;480.40;;
9222;SDS011;7557;51.698;3.942;2023-08-21T05:35:33;468.83;;;449.58;;
9222;SDS011;7557;51.698;3.942;2023-08-21T05:38:02;435.00;;;417.63;;
9222;SDS011;7557;51.698;3.942;2023-08-21T05:40:31;460.88;;;442.10;;
9222;SDS011;7557;51.698;3.942;2023-08-21T05:42:59;525.38;;;503.80;;
9222;SDS011;7557;51.698;3.942;2023-08-21T05:45:26;552.85;;;528.53;;
9222;SDS011;7557;51.698;3.942;2023-08-21T05:47:54;547.70;;;524.80;;
9222;SDS011;7557;51.698;3.942;2023-08-21T05:50:23;602.40;;;575.33;;
9222;SDS011;7557;51.698;3.942;2023-08-21T05:52:51;617.20;;;589.72;;
9222;SDS011;7557;51.698;3.942;2023-08-21T05:55:19;669.03;;;638.08;;
9222;SDS011;7557;51.698;3.942;2023-08-21T05:57:51;702.72;;;668.72;;
9222;SDS011;7557;51.698;3.942;2023-08-21T06:00:18;702.15;;;668.55;;
9222;SDS011;7557;51.698;3.942;2023-08-21T06:02:46;672.35;;;640.97;;
9222;SDS011;7557;51.698;3.942;2023-08-21T06:05:13;654.83;;;625.05;;
9222;SDS011;7557;51.698;3.942;2023-08-21T06:07:40;665.67;;;634.97;;
9222;SDS011;7557;51.698;3.942;2023-08-21T06:10:09;665.35;;;634.70;;
9222;SDS011;7557;51.698;3.942;2023-08-21T06:12:37;703.25;;;668.80;;
9222;SDS011;7557;51.698;3.942;2023-08-21T06:15:08;651.28;;;621.30;;
9222;SDS011;7557;51.698;3.942;2023-08-21T06:17:37;589.92;;;564.58;;
9222;SDS011;7557;51.698;3.942;2023-08-21T06:20:05;557.28;;;533.95;;
9222;SDS011;7557;51.698;3.942;2023-08-21T06:22:34;547.90;;;524.88;;
9222;SDS011;7557;51.698;3.942;2023-08-21T06:25:02;537.05;;;515.05;;
9222;SDS011;7557;51.698;3.942;2023-08-21T06:27:30;529.25;;;507.70;;
9222;SDS011;7557;51.698;3.942;2023-08-21T06:29:57;527.63;;;505.77;;
9222;SDS011;7557;51.698;3.942;2023-08-21T06:32:26;533.33;;;510.88;;
9222;SDS011;7557;51.698;3.942;2023-08-21T06:34:54;558.35;;;534.33;;
9222;SDS011;7557;51.698;3.942;2023-08-21T06:37:21;590.03;;;564.03;;
9222;SDS011;7557;51.698;3.942;2023-08-21T06:39:48;598.85;;;572.35;;
9222;SDS011;7557;51.698;3.942;2023-08-21T06:42:15;577.67;;;552.97;;
9222;SDS011;7557;51.698;3.942;2023-08-21T06:44:43;600.28;;;573.80;;
9222;SDS011;7557;51.698;3.942;2023-08-21T06:47:10;625.47;;;597.45;;
9222;SDS011;7557;51.698;3.942;2023-08-21T06:49:39;640.00;;;610.30;;
9222;SDS011;7557;51.698;3.942;2023-08-21T06:52:06;605.33;;;578.40;;
9222;SDS011;7557;51.698;3.942;2023-08-21T06:54:34;622.17;;;593.70;;
9222;SDS011;7557;51.698;3.942;2023-08-21T06:57:01;653.35;;;623.30;;
9222;SDS011;7557;51.698;3.942;2023-08-21T06:59:28;645.58;;;614.75;;
9222;SDS011;7557;51.698;3.942;2023-08-21T07:01:59;694.17;;;660.25;;
9222;SDS011;7557;51.698;3.942;2023-08-21T07:04:26;717.63;;;680.88;;
9222;SDS011;7557;51.698;3.942;2023-08-21T07:06:55;727.63;;;690.70;;
9222;SDS011;7557;51.698;3.942;2023-08-21T07:09:22;756.85;;;717.33;;
9222;SDS011;7557;51.698;3.942;2023-08-21T07:11:49;735.63;;;697.28;;
9222;SDS011;7557;51.698;3.942;2023-08-21T07:14:17;704.88;;;669.13;;
9222;SDS011;7557;51.698;3.942;2023-08-21T07:16:44;743.78;;;704.25;;
9222;SDS011;7557;51.698;3.942;2023-08-21T07:19:11;775.97;;;733.22;;
9222;SDS011;7557;51.698;3.942;2023-08-21T07:21:39;728.13;;;690.50;;
9222;SDS011;7557;51.698;3.942;2023-08-21T07:24:08;735.13;;;697.88;;
9222;SDS011;7557;51.698;3.942;2023-08-21T07:26:35;793.67;;;749.17;;
9222;SDS011;7557;51.698;3.942;2023-08-21T07:29:02;675.25;;;641.28;;
9222;SDS011;7557;51.698;3.942;2023-08-21T07:31:30;787.05;;;743.45;;
9222;SDS011;7557;51.698;3.942;2023-08-21T07:33:58;821.05;;;773.22;;
9222;SDS011;7557;51.698;3.942;2023-08-21T07:36:26;715.05;;;679.13;;
9222;SDS011;7557;51.698;3.942;2023-08-21T07:38:54;708.72;;;672.53;;
9222;SDS011;7557;51.698;3.942;2023-08-21T07:41:23;744.55;;;704.90;;
9222;SDS011;7557;51.698;3.942;2023-08-21T07:43:50;756.88;;;715.83;;
9222;SDS011;7557;51.698;3.942;2023-08-21T07:46:18;683.63;;;650.17;;
9222;SDS011;7557;51.698;3.942;2023-08-21T07:48:45;752.10;;;712.45;;
9222;SDS011;7557;51.698;3.942;2023-08-21T07:51:12;720.47;;;683.33;;
9222;SDS011;7557;51.698;3.942;2023-08-21T07:53:40;646.65;;;615.90;;
9222;SDS011;7557;51.698;3.942;2023-08-21T07:56:07;691.85;;;657.78;;
9222;SDS011;7557;51.698;3.942;2023-08-21T07:58:36;678.10;;;643.85;;
9222;SDS011;7557;51.698;3.942;2023-08-21T08:01:04;697.60;;;663.15;;
9222;SDS011;7557;51.698;3.942;2023-08-21T08:03:31;608.60;;;580.45;;
9222;SDS011;7557;51.698;3.942;2023-08-21T08:05:59;657.10;;;625.40;;
9222;SDS011;7557;51.698;3.942;2023-08-21T08:08:26;630.90;;;601.33;;
9222;SDS011;7557;51.698;3.942;2023-08-21T08:10:54;629.92;;;599.63;;
9222;SDS011;7557;51.698;3.942;2023-08-21T08:13:21;608.75;;;581.00;;
9222;SDS011;7557;51.698;3.942;2023-08-21T08:15:50;585.13;;;558.88;;
9222;SDS011;7557;51.698;3.942;2023-08-21T08:18:17;683.88;;;649.95;;
9222;SDS011;7557;51.698;3.942;2023-08-21T08:20:44;644.63;;;614.08;;
9222;SDS011;7557;51.698;3.942;2023-08-21T08:23:11;612.28;;;584.00;;
9222;SDS011;7557;51.698;3.942;2023-08-21T08:25:39;709.15;;;673.90;;
9222;SDS011;7557;51.698;3.942;2023-08-21T08:28:06;547.53;;;523.70;;
9222;SDS011;7557;51.698;3.942;2023-08-21T08:30:34;642.75;;;611.92;;
9222;SDS011;7557;51.698;3.942;2023-08-21T08:33:03;621.92;;;593.67;;
9222;SDS011;7557;51.698;3.942;2023-08-21T08:35:30;586.67;;;560.22;;
9222;SDS011;7557;51.698;3.942;2023-08-21T08:37:58;532.25;;;509.98;;
9222;SDS011;7557;51.698;3.942;2023-08-21T08:40:25;590.08;;;563.25;;
9222;SDS011;7557;51.698;3.942;2023-08-21T08:42:52;560.63;;;535.92;;
9222;SDS011;7557;51.698;3.942;2023-08-21T08:45:22;661.60;;;630.15;;
9222;SDS011;7557;51.698;3.942;2023-08-21T08:47:59;611.47;;;584.33;;
9222;SDS011;7557;51.698;3.942;2023-08-21T08:50:28;565.03;;;540.40;;
9222;SDS011;7557;51.698;3.942;2023-08-21T08:52:57;533.85;;;511.20;;
9222;SDS011;7557;51.698;3.942;2023-08-21T08:55:25;608.03;;;580.30;;
9222;SDS011;7557;51.698;3.942;2023-08-21T08:57:53;558.13;;;533.70;;
9222;SDS011;7557;51.698;3.942;2023-08-21T09:00:20;527.03;;;504.58;;
9222;SDS011;7557;51.698;3.942;2023-08-21T09:02:48;433.90;;;416.90;;
9222;SDS011;7557;51.698;3.942;2023-08-21T09:05:15;612.90;;;585.08;;
9222;SDS011;7557;51.698;3.942;2023-08-21T09:07:45;547.35;;;523.50;;
9222;SDS011;7557;51.698;3.942;2023-08-21T09:10:12;495.42;;;475.35;;
9222;SDS011;7557;51.698;3.942;2023-08-21T09:12:44;517.72;;;496.05;;
9222;SDS011;7557;51.698;3.942;2023-08-21T09:15:12;526.72;;;505.00;;
9222;SDS011;7557;51.698;3.942;2023-08-21T09:17:40;517.38;;;496.35;;
9222;SDS011;7557;51.698;3.942;2023-08-21T09:20:10;404.48;;;389.25;;
9222;SDS011;7557;51.698;3.942;2023-08-21T09:22:38;364.55;;;351.42;;
9222;SDS011;7557;51.698;3.942;2023-08-21T09:25:07;423.98;;;407.20;;
9222;SDS011;7557;51.698;3.942;2023-08-21T09:27:35;471.10;;;452.50;;
9222;SDS011;7557;51.698;3.942;2023-08-21T09:30:05;379.00;;;365.23;;
9222;SDS011;7557;51.698;3.942;2023-08-21T09:32:37;460.67;;;442.85;;
9222;SDS011;7557;51.698;3.942;2023-08-21T09:35:19;397.25;;;382.45;;
9222;SDS011;7557;51.698;3.942;2023-08-21T09:37:46;444.40;;;427.50;;
9222;SDS011;7557;51.698;3.942;2023-08-21T09:40:16;588.78;;;561.78;;
9222;SDS011;7557;51.698;3.942;2023-08-21T09:42:43;647.65;;;617.17;;
9222;SDS011;7557;51.698;3.942;2023-08-21T09:45:11;712.22;;;676.30;;
9222;SDS011;7557;51.698;3.942;2023-08-21T09:47:40;632.38;;;603.08;;
9222;SDS011;7557;51.698;3.942;2023-08-21T09:50:07;614.20;;;586.25;;
9222;SDS011;7557;51.698;3.942;2023-08-21T09:52:35;592.97;;;566.60;;
9222;SDS011;7557;51.698;3.942;2023-08-21T09:55:03;593.85;;;567.75;;
9222;SDS011;7557;51.698;3.942;2023-08-21T09:57:33;639.33;;;609.22;;
9222;SDS011;7557;51.698;3.942;2023-08-21T10:00:02;660.42;;;628.50;;
9222;SDS011;7557;51.698;3.942;2023-08-21T10:02:41;656.28;;;625.35;;
9222;SDS011;7557;51.698;3.942;2023-08-21T10:05:13;673.75;;;641.00;;
9222;SDS011;7557;51.698;3.942;2023-08-21T10:07:42;672.60;;;640.80;;
9222;SDS011;7557;51.698;3.942;2023-08-21T10:10:12;663.92;;;632.33;;
9222;SDS011;7557;51.698;3.942;2023-08-21T10:12:42;686.00;;;652.47;;
9222;SDS011;7557;51.698;3.942;2023-08-21T10:15:09;745.85;;;706.05;;
9222;SDS011;7557;51.698;3.942;2023-08-21T10:17:37;743.28;;;704.60;;
9222;SDS011;7557;51.698;3.942;2023-08-21T10:20:06;757.40;;;717.47;;
9222;SDS011;7557;51.698;3.942;2023-08-21T10:22:39;646.47;;;616.28;;
9222;SDS011;7557;51.698;3.942;2023-08-21T10:25:15;725.53;;;689.50;;
9222;SDS011;7557;51.698;3.942;2023-08-21T10:27:48;718.83;;;681.83;;
9222;SDS011;7557;51.698;3.942;2023-08-21T10:30:20;734.47;;;696.50;;
9222;SDS011;7557;51.698;3.942;2023-08-21T10:32:49;732.15;;;694.22;;
9222;SDS011;7557;51.698;3.942;2023-08-21T10:35:18;806.65;;;761.58;;
9222;SDS011;7557;51.698;3.942;2023-08-21T10:38:05;751.97;;;713.75;;
9222;SDS011;7557;51.698;3.942;2023-08-21T10:40:37;802.75;;;758.33;;
9222;SDS011;7557;51.698;3.942;2023-08-21T10:46:10;727.20;;;690.72;;
9222;SDS011;7557;51.698;3.942;2023-08-21T10:48:38;703.28;;;667.70;;
9222;SDS011;7557;51.698;3.942;2023-08-21T10:51:07;722.25;;;686.00;;
9222;SDS011;7557;51.698;3.942;2023-08-21T10:53:35;706.97;;;671.88;;
9222;SDS011;7557;51.698;3.942;2023-08-21T10:56:04;671.33;;;639.83;;
9222;SDS011;7557;51.698;3.942;2023-08-21T10:58:34;709.30;;;675.08;;
9222;SDS011;7557;51.698;3.942;2023-08-21T11:01:04;697.95;;;664.40;;
9222;SDS011;7557;51.698;3.942;2023-08-21T11:03:33;722.28;;;686.95;;
9222;SDS011;7557;51.698;3.942;2023-08-21T11:06:05;710.13;;;674.90;;
9222;SDS011;7557;51.698;3.942;2023-08-21T11:08:36;708.35;;;672.40;;
9222;SDS011;7557;51.698;3.942;2023-08-21T11:11:04;697.90;;;664.20;;
9222;SDS011;7557;51.698;3.942;2023-08-21T11:13:32;690.17;;;656.72;;
9222;SDS011;7557;51.698;3.942;2023-08-21T11:16:03;554.70;;;530.40;;
9222;SDS011;7557;51.698;3.942;2023-08-21T11:18:35;439.05;;;422.42;;
9222;SDS011;7557;51.698;3.942;2023-08-21T11:21:04;517.78;;;496.98;;
9222;SDS011;7557;51.698;3.942;2023-08-21T11:23:34;647.78;;;618.28;;
9222;SDS011;7557;51.698;3.942;2023-08-21T11:26:02;730.55;;;692.92;;
9222;SDS011;7557;51.698;3.942;2023-08-21T11:28:30;597.28;;;570.85;;
9222;SDS011;7557;51.698;3.942;2023-08-21T11:30:58;723.03;;;686.47;;
9222;SDS011;7557;51.698;3.942;2023-08-21T11:33:26;456.17;;;438.67;;
9222;SDS011;7557;51.698;3.942;2023-08-21T11:35:56;443.30;;;426.55;;
9222;SDS011;7557;51.698;3.942;2023-08-21T11:38:25;542.60;;;519.72;;
9222;SDS011;7557;51.698;3.942;2023-08-21T11:40:56;538.22;;;515.67;;
9222;SDS011;7557;51.698;3.942;2023-08-21T11:43:34;379.05;;;364.98;;
9222;SDS011;7557;51.698;3.942;2023-08-21T11:46:02;319.50;;;308.30;;
9222;SDS011;7557;51.698;3.942;2023-08-21T11:48:30;378.08;;;364.55;;
9222;SDS011;7557;51.698;3.942;2023-08-21T11:51:00;238.85;;;230.38;;
9222;SDS011;7557;51.698;3.942;2023-08-21T11:53:31;195.60;;;188.70;;
9222;SDS011;7557;51.698;3.942;2023-08-21T11:55:59;137.15;;;132.13;;
9222;SDS011;7557;51.698;3.942;2023-08-21T11:58:27;119.93;;;115.60;;
9222;SDS011;7557;51.698;3.942;2023-08-21T12:00:55;263.75;;;254.38;;
9222;SDS011;7557;51.698;3.942;2023-08-21T12:03:30;325.90;;;314.10;;
9222;SDS011;7557;51.698;3.942;2023-08-21T12:06:05;290.55;;;280.30;;
9222;SDS011;7557;51.698;3.942;2023-08-21T12:08:33;303.42;;;292.77;;
9222;SDS011;7557;51.698;3.942;2023-08-21T12:11:01;273.13;;;263.95;;
9222;SDS011;7557;51.698;3.942;2023-08-21T12:13:29;43.92;;;42.22;;
9222;SDS011;7557;51.698;3.942;2023-08-21T12:15:56;51.60;;;49.70;;
9222;SDS011;7557;51.698;3.942;2023-08-21T12:18:24;279.00;;;269.27;;
9222;SDS011;7557;51.698;3.942;2023-08-21T12:20:51;168.32;;;162.23;;
9222;SDS011;7557;51.698;3.942;2023-08-21T12:23:20;295.17;;;284.98;;
9222;SDS011;7557;51.698;3.942;2023-08-21T12:25:48;173.50;;;167.40;;
9222;SDS011;7557;51.698;3.942;2023-08-21T12:28:15;340.63;;;328.55;;
9222;SDS011;7557;51.698;3.942;2023-08-21T12:30:42;277.27;;;267.40;;
9222;SDS011;7557;51.698;3.942;2023-08-21T12:33:10;335.15;;;323.13;;
9222;SDS011;7557;51.698;3.942;2023-08-21T12:35:38;306.13;;;295.30;;
9222;SDS011;7557;51.698;3.942;2023-08-21T12:38:10;261.08;;;251.77;;
9222;SDS011;7557;51.698;3.942;2023-08-21T12:40:40;116.32;;;112.28;;
9222;SDS011;7557;51.698;3.942;2023-08-21T12:43:08;60.53;;;58.13;;
9222;SDS011;7557;51.698;3.942;2023-08-21T12:45:35;127.90;;;123.13;;
9222;SDS011;7557;51.698;3.942;2023-08-21T12:48:03;154.45;;;148.95;;
9222;SDS011;7557;51.698;3.942;2023-08-21T12:50:33;146.63;;;141.35;;
9222;SDS011;7557;51.698;3.942;2023-08-21T12:53:00;176.15;;;169.30;;
9222;SDS011;7557;51.698;3.942;2023-08-21T12:55:28;192.52;;;185.57;;
9222;SDS011;7557;51.698;3.942;2023-08-21T12:57:57;366.98;;;353.40;;
9222;SDS011;7557;51.698;3.942;2023-08-21T13:00:25;330.00;;;318.27;;
9222;SDS011;7557;51.698;3.942;2023-08-21T13:02:53;235.13;;;226.60;;
9222;SDS011;7557;51.698;3.942;2023-08-21T13:05:22;202.05;;;194.82;;
9222;SDS011;7557;51.698;3.942;2023-08-21T13:07:50;246.93;;;238.23;;
9222;SDS011;7557;51.698;3.942;2023-08-21T13:10:17;273.13;;;263.75;;
9222;SDS011;7557;51.698;3.942;2023-08-21T13:12:45;212.65;;;205.07;;
9222;SDS011;7557;51.698;3.942;2023-08-21T13:15:16;153.57;;;148.25;;
9222;SDS011;7557;51.698;3.942;2023-08-21T13:17:44;294.60;;;283.67;;
9222;SDS011;7557;51.698;3.942;2023-08-21T13:20:11;277.95;;;267.38;;
9222;SDS011;7557;51.698;3.942;2023-08-21T13:22:45;166.43;;;160.40;;
9222;SDS011;7557;51.698;3.942;2023-08-21T13:25:14;475.27;;;455.98;;
9222;SDS011;7557;51.698;3.942;2023-08-21T13:27:41;562.53;;;530.65;;
9222;SDS011;7557;51.698;3.942;2023-08-21T13:30:09;482.92;;;463.40;;
9222;SDS011;7557;51.698;3.942;2023-08-21T13:32:39;650.53;;;617.78;;
9222;SDS011;7557;51.698;3.942;2023-08-21T13:35:06;719.00;;;675.28;;
9222;SDS011;7557;51.698;3.942;2023-08-21T13:37:34;180.55;;;172.95;;
9222;SDS011;7557;51.698;3.942;2023-08-21T13:40:03;591.88;;;563.85;;
9222;SDS011;7557;51.698;3.942;2023-08-21T13:42:35;396.77;;;381.95;;
9222;SDS011;7557;51.698;3.942;2023-08-21T13:45:06;742.20;;;700.90;;
9222;SDS011;7557;51.698;3.942;2023-08-21T13:47:36;410.00;;;385.23;;
9222;SDS011;7557;51.698;3.942;2023-08-21T13:50:06;416.08;;;398.25;;
9222;SDS011;7557;51.698;3.942;2023-08-21T13:52:35;285.40;;;274.33;;
9222;SDS011;7557;51.698;3.942;2023-08-21T13:55:05;44.22;;;42.55;;
9222;SDS011;7557;51.698;3.942;2023-08-21T13:57:32;54.63;;;52.55;;
9222;SDS011;7557;51.698;3.942;2023-08-21T14:00:00;406.35;;;391.10;;
9222;SDS011;7557;51.698;3.942;2023-08-21T14:02:27;470.05;;;451.35;;
9222;SDS011;7557;51.698;3.942;2023-08-21T14:04:56;369.42;;;356.02;;
9222;SDS011;7557;51.698;3.942;2023-08-21T14:07:23;362.55;;;349.63;;
9222;SDS011;7557;51.698;3.942;2023-08-21T14:09:51;328.27;;;316.10;;
9222;SDS011;7557;51.698;3.942;2023-08-21T14:12:27;255.27;;;246.43;;
9222;SDS011;7557;51.698;3.942;2023-08-21T14:14:55;441.88;;;425.00;;
9222;SDS011;7557;51.698;3.942;2023-08-21T14:17:23;250.80;;;241.07;;
9222;SDS011;7557;51.698;3.942;2023-08-21T14:19:50;352.58;;;339.65;;
9222;SDS011;7557;51.698;3.942;2023-08-21T14:22:19;369.98;;;356.55;;
9222;SDS011;7557;51.698;3.942;2023-08-21T14:24:47;509.00;;;487.80;;
9222;SDS011;7557;51.698;3.942;2023-08-21T14:27:14;274.83;;;265.25;;
9222;SDS011;7557;51.698;3.942;2023-08-21T14:29:42;124.18;;;119.82;;
9222;SDS011;7557;51.698;3.942;2023-08-21T14:32:10;287.17;;;277.23;;
9222;SDS011;7557;51.698;3.942;2023-08-21T14:34:37;26.02;;;25.15;;